Terminal Aerodrome Forecast
Issued by NWS Missoula, MT

Home | Current Version | Previous Version | Text Only | Print | Product List | Glossary On
Versions: 1 2 3 4 5 6 7 8 9 10 11 12 13 14 15 16 17 18 19 20
000
FTUS45 KMSO 202340
TAFGPI
TAF
KGPI 202340Z 2100/2124 VRB03KT P6SM BKN150
     FM211300 VRB05KT P6SM VCSH OVC050
     FM211500 22006KT P6SM -RA OVC035
     FM212000 20007KT P6SM VCSH BKN040=

USA.gov is the U.S. government's official web portal to all federal, state and local government web resources and services.